Fort Severn Airport
CYER : now visible

Airfield :











YOU CAN JOIN US ON...

 
LOGIN :

Register | Disclaimer

   EN    FR    IT 

 









Legend :    VFR   Marginal VFR   IFR   Intensive IFR   Very Intensive IFR
Visi :
Ceiling :
>= 8 km
>= 3000ft
5 to 8 km
1000 to 3000 ft
1500m to 5 km
500 to 1000 ft
800 to 1500m
200 to 500 ft
< 800m
< 200 ft
Symbols :   Thunderstorms  Fog  Heavy snow  Heavy precipitations  Wind > 20 kt






- Airport Elevation : 48 ft
- IATA code : YER


CYER - Fort Severn

CURRENT METAR :
  • 112054Z AUTO 30010G19KT 9SM BKN007 OVC015 16/14 A2946 RMK SLP977 DENSITY ALT 600FT

EXPIRED METARs :
  • 112034Z AUTO 32012G19KT 9SM BKN013 BKN017 OVC025 17/15 A2944 RMK SLP972 DENSITY ALT 700FT
  • 112021Z AUTO 32008G18KT 5SM -RA BR SCT011 BKN017 BKN025 OVC036 17/15 A2943 RMK PRESRR SLP968 DENSITY ALT 700FT
  • 112000Z AUTO 31011G16KT 280V350 9SM FEW022 SCT038 BKN045 OVC055 19/15 A2941 RMK SLP962 DENSITY ALT 1100FT
  • 111900Z AUTO 29007G15KT 9SM SCT020 OVC039 19/14 A2938 RMK SLP952 DENSITY ALT 1100FT
  • 111855Z AUTO 30008KT 9SM SCT020 BKN034 OVC042 19/15 A2938 RMK SLP952 DENSITY ALT 1100FT
  • 111849Z AUTO 28009KT 9SM BKN020 BKN042 19/15 A2938 RMK SLP951 DENSITY ALT 1100FT
  • 111821Z AUTO 27009KT 9SM FEW016 SCT024 BKN032 OVC042 17/15 A2937 RMK SLP947 DENSITY ALT 900FT

Expired Forecast.
CZWG FIR / North America



MET'MAP, your aeronautical weather chart ! - Copyright ORBIFLY December 2007 - Disclaimer

ORBIFLY MET'MAP TEAM :

Programming & Development : Alexandra Zaïnal
Concept & original design : Baudouin d'Aumeries
Assistance for programming : Marc-Olivier Méhu
Technical & hardware support : Manuel Goepfert

Contact : metmap@orbifly.com




SOURCES & CREDITS :

   NOAA       Earth
Advisory